createdAt,value
2023-02-11T00:01:44.535Z,75.26
2023-02-11T00:04:12.424Z,75.42
2023-02-11T00:06:40.426Z,75.30
2023-02-11T00:09:08.742Z,75.50
2023-02-11T00:11:36.967Z,75.65
2023-02-11T00:14:13.583Z,75.46
2023-02-11T00:16:41.551Z,75.23
2023-02-11T00:19:09.867Z,75.40
2023-02-11T00:21:37.795Z,76.11
2023-02-11T00:24:05.959Z,76.38
2023-02-11T00:26:35.895Z,76.34
2023-02-11T00:29:13.789Z,77.20
2023-02-11T00:31:42.148Z,77.04
2023-02-11T00:34:10.176Z,76.85
2023-02-11T00:36:40.264Z,76.80
2023-02-11T00:39:09.537Z,76.95
2023-02-11T00:41:38.864Z,76.82
2023-02-11T00:44:07.194Z,77.20
2023-02-11T00:46:35.226Z,77.68
2023-02-11T00:49:03.407Z,77.56
2023-02-11T00:51:31.343Z,77.21
2023-02-11T00:53:59.399Z,77.14
2023-02-11T00:56:27.384Z,77.18
2023-02-11T00:58:57.485Z,77.55
2023-02-11T01:01:25.778Z,78.27
2023-02-11T01:03:53.747Z,77.94
2023-02-11T01:06:23.762Z,77.86
2023-02-11T01:08:51.768Z,77.90
2023-02-11T01:11:21.862Z,77.66
2023-02-11T01:13:50.418Z,77.90
2023-02-11T01:16:20.156Z,78.42
2023-02-11T01:18:48.503Z,78.52
2023-02-11T01:22:11.577Z,77.97
2023-02-11T01:24:39.559Z,77.84
2023-02-11T01:27:08.576Z,77.62
2023-02-11T01:29:36.586Z,77.57
2023-02-11T01:32:04.715Z,77.90
2023-02-11T01:34:32.624Z,77.88
2023-02-11T01:37:00.982Z,77.99
2023-02-11T01:39:36.780Z,77.86
2023-02-11T01:42:06.544Z,77.54
2023-02-11T01:44:38.212Z,77.78
2023-02-11T01:47:06.635Z,78.46
2023-02-11T01:49:43.404Z,78.57
2023-02-11T01:52:21.718Z,78.68
2023-02-11T01:55:13.480Z,78.56
2023-02-11T01:57:45.683Z,78.30
2023-02-11T02:00:41.839Z,78.45
2023-02-11T02:03:17.149Z,78.42
2023-02-11T02:06:29.555Z,79.00
2023-02-11T02:09:05.149Z,78.84
2023-02-11T02:11:33.140Z,78.71
2023-02-11T02:14:01.158Z,78.77
2023-02-11T02:16:35.047Z,78.95
2023-02-11T02:19:33.751Z,79.36
2023-02-11T02:22:14.515Z,79.24
2023-02-11T02:25:01.275Z,78.98
2023-02-11T02:27:42.147Z,78.79
2023-02-11T02:30:42.341Z,78.41
2023-02-11T02:33:34.645Z,78.85
2023-02-11T02:36:14.417Z,79.38
2023-02-11T02:38:56.842Z,79.14
2023-02-11T02:41:30.654Z,78.93
2023-02-11T02:43:59.116Z,78.88
2023-02-11T02:46:31.712Z,78.69
2023-02-11T02:49:01.782Z,79.02
2023-02-11T02:51:51.121Z,79.12
2023-02-11T02:54:28.002Z,78.87
2023-02-11T02:56:59.630Z,78.95
2023-02-11T02:59:36.719Z,78.67
2023-02-11T03:02:19.950Z,78.50
2023-02-11T03:05:17.770Z,78.46
2023-02-11T03:08:18.593Z,78.59
2023-02-11T03:10:51.332Z,78.64
2023-02-11T03:13:24.646Z,78.64
2023-02-11T03:15:56.835Z,78.79
2023-02-11T03:18:29.126Z,78.70
2023-02-11T03:20:58.606Z,78.46
2023-02-11T03:23:35.443Z,78.55
2023-02-11T03:26:27.104Z,78.73
2023-02-11T03:29:10.609Z,78.74
2023-02-11T03:31:44.670Z,79.08
2023-02-11T03:34:23.130Z,79.34
2023-02-11T03:37:00.143Z,79.19
2023-02-11T03:39:36.146Z,79.18
2023-02-11T03:42:08.677Z,79.29
2023-02-11T03:44:44.636Z,79.27
2023-02-11T03:47:15.635Z,79.06
2023-02-11T03:49:48.354Z,79.00
2023-02-11T03:52:20.578Z,78.92
2023-02-11T03:54:54.097Z,78.72
2023-02-11T03:57:22.064Z,78.62
2023-02-11T04:00:06.735Z,78.79
2023-02-11T04:02:40.226Z,79.19
2023-02-11T04:05:16.334Z,79.01
2023-02-11T04:07:44.349Z,78.94
2023-02-11T04:10:13.029Z,78.80
2023-02-11T04:12:41.186Z,78.88
2023-02-11T04:15:09.841Z,79.04
2023-02-11T04:17:38.311Z,79.10
2023-02-11T04:20:06.405Z,79.14
2023-02-11T04:22:34.437Z,78.88
2023-02-11T04:25:02.889Z,78.83
2023-02-11T04:27:30.858Z,78.54
2023-02-11T04:29:58.986Z,78.67
2023-02-11T04:32:28.960Z,79.03
2023-02-11T04:34:56.962Z,78.94
2023-02-11T04:37:24.987Z,79.23
2023-02-11T04:39:52.927Z,78.91
2023-02-11T04:42:20.905Z,79.05
2023-02-11T04:44:48.809Z,79.16
2023-02-11T04:47:16.758Z,79.84
2023-02-11T04:49:44.825Z,79.82
2023-02-11T04:52:12.839Z,79.63
2023-02-11T04:54:41.054Z,79.39
2023-02-11T04:57:09.080Z,79.43
2023-02-11T04:59:37.070Z,79.67
2023-02-11T05:02:05.120Z,80.04
2023-02-11T05:04:33.058Z,79.95
2023-02-11T05:07:01.017Z,79.84
2023-02-11T05:09:29.062Z,79.65
2023-02-11T05:11:56.983Z,79.45
2023-02-11T05:14:24.862Z,79.71
2023-02-11T05:16:53.372Z,80.16
2023-02-11T05:19:21.446Z,80.10
2023-02-11T05:22:01.639Z,79.91
2023-02-11T05:24:32.250Z,79.71
2023-02-11T05:27:00.708Z,79.55
2023-02-11T05:29:28.816Z,79.83
2023-02-11T05:31:58.557Z,80.00
2023-02-11T05:34:26.570Z,79.91
2023-02-11T05:36:54.616Z,79.87
2023-02-11T05:39:22.707Z,79.67
2023-02-11T05:41:50.636Z,79.47
2023-02-11T05:44:19.088Z,79.67
2023-02-11T05:46:47.040Z,80.29
2023-02-11T05:49:17.111Z,79.91
2023-02-11T05:51:45.040Z,79.82
2023-02-11T05:54:13.142Z,79.74
2023-02-11T05:56:43.797Z,79.38
2023-02-11T05:59:16.428Z,79.33
2023-02-11T06:01:44.676Z,79.56
2023-02-11T06:04:12.678Z,79.93
2023-02-11T06:06:40.664Z,79.76
2023-02-11T06:09:10.552Z,79.55
2023-02-11T06:11:39.113Z,79.08
2023-02-11T06:14:07.174Z,79.09
2023-02-11T06:16:35.141Z,79.34
2023-02-11T06:19:03.063Z,79.60
2023-02-11T06:21:42.870Z,79.18
2023-02-11T06:24:12.684Z,78.72
2023-02-11T06:26:40.800Z,78.63
2023-02-11T06:29:08.901Z,78.49
2023-02-11T06:31:39.062Z,78.99
2023-02-11T06:34:09.515Z,79.21
2023-02-11T06:36:39.990Z,78.85
2023-02-11T06:39:08.780Z,78.69
2023-02-11T06:41:36.883Z,78.17
2023-02-11T06:44:06.347Z,78.14
2023-02-11T06:46:34.687Z,78.64
2023-02-11T06:49:03.494Z,78.88
2023-02-11T06:51:31.763Z,78.58
2023-02-11T06:53:59.859Z,78.48
2023-02-11T06:56:27.871Z,77.84
2023-02-11T06:58:56.710Z,77.92
2023-02-11T07:01:27.077Z,78.34
2023-02-11T07:03:55.305Z,78.15
2023-02-11T07:06:27.971Z,78.00
2023-02-11T07:08:56.555Z,77.76
2023-02-11T07:11:27.751Z,78.15
2023-02-11T07:14:00.562Z,78.63
2023-02-11T07:16:28.637Z,77.96
2023-02-11T07:18:56.680Z,77.91
2023-02-11T07:21:24.673Z,77.70
2023-02-11T07:23:52.880Z,77.73
2023-02-11T07:26:23.538Z,78.05
2023-02-11T07:28:53.015Z,78.12
2023-02-11T07:31:25.017Z,77.93
2023-02-11T07:33:55.512Z,77.47
2023-02-11T07:36:24.214Z,77.34
2023-02-11T07:38:52.188Z,77.43
2023-02-11T07:41:22.271Z,77.94
2023-02-11T07:43:51.031Z,78.11
2023-02-11T07:46:22.403Z,77.88
2023-02-11T07:48:51.063Z,77.62
2023-02-11T07:51:27.821Z,77.55
2023-02-11T07:53:57.534Z,77.77
2023-02-11T07:56:27.658Z,78.26
2023-02-11T07:58:59.955Z,78.07
2023-02-11T08:01:28.854Z,77.58
2023-02-11T08:04:00.313Z,77.53
2023-02-11T08:06:31.794Z,77.31
2023-02-11T08:09:05.973Z,77.81
2023-02-11T08:11:34.027Z,78.01
2023-02-11T08:14:02.330Z,77.60
2023-02-11T08:16:33.702Z,77.49
2023-02-11T08:19:11.951Z,77.22
2023-02-11T08:21:40.808Z,76.75
2023-02-11T08:24:10.768Z,76.72
2023-02-11T08:26:39.330Z,76.46
2023-02-11T08:29:11.099Z,76.01
2023-02-11T08:31:42.295Z,75.35
2023-02-11T08:34:12.069Z,75.04
2023-02-11T08:36:41.794Z,74.96
2023-02-11T08:39:19.656Z,75.27
2023-02-11T08:42:02.506Z,76.08
2023-02-11T08:44:30.634Z,75.07
2023-02-11T08:46:58.723Z,73.81
2023-02-11T08:49:26.788Z,73.33
2023-02-11T08:51:56.402Z,72.95
2023-02-11T08:54:24.459Z,72.83
2023-02-11T08:56:52.766Z,73.41
2023-02-11T08:59:20.780Z,73.18
2023-02-11T09:01:48.908Z,74.04
2023-02-11T09:04:17.515Z,74.05
2023-02-11T09:06:46.136Z,73.91
2023-02-11T09:09:15.624Z,72.58
2023-02-11T09:11:45.248Z,72.35
2023-02-11T09:14:18.753Z,72.02
2023-02-11T09:16:46.911Z,71.51
2023-02-11T09:19:14.905Z,71.78
2023-02-11T09:21:43.089Z,71.50
2023-02-11T09:24:11.670Z,71.48
2023-02-11T09:26:43.365Z,71.98
2023-02-11T09:29:11.642Z,72.15
2023-02-11T09:31:39.751Z,71.73
2023-02-11T09:34:07.889Z,71.20
2023-02-11T09:36:38.776Z,70.66
2023-02-11T09:39:11.933Z,70.68
2023-02-11T09:41:48.618Z,70.68
2023-02-11T09:44:21.322Z,70.88
2023-02-11T09:46:58.338Z,70.54
2023-02-11T09:49:37.187Z,70.70
2023-02-11T09:52:11.571Z,71.02
2023-02-11T09:55:06.226Z,71.25
2023-02-11T09:57:36.989Z,70.77
2023-02-11T10:00:19.857Z,70.58
2023-02-11T10:03:13.225Z,70.23
2023-02-11T10:06:06.921Z,70.25
2023-02-11T10:08:59.819Z,70.01
2023-02-11T10:11:39.717Z,70.48
2023-02-11T10:14:37.012Z,70.51
2023-02-11T10:17:44.231Z,70.47
2023-02-11T10:20:40.432Z,71.37
2023-02-11T10:23:25.014Z,70.86
2023-02-11T10:25:56.475Z,70.56
2023-02-11T10:28:31.183Z,70.71
2023-02-11T10:31:16.284Z,69.75
2023-02-11T10:33:46.873Z,69.05
2023-02-11T10:36:17.706Z,69.18
2023-02-11T10:38:45.612Z,69.05
2023-02-11T10:41:18.272Z,68.64
2023-02-11T10:43:46.172Z,68.98
2023-02-11T10:46:22.283Z,68.81
2023-02-11T10:48:53.461Z,68.94
2023-02-11T10:51:28.683Z,68.32
2023-02-11T10:54:13.325Z,68.22
2023-02-11T10:56:46.103Z,68.17
2023-02-11T10:59:46.292Z,67.87
2023-02-11T11:02:24.550Z,67.89
2023-02-11T11:04:57.896Z,68.31
2023-02-11T11:07:28.781Z,67.83
2023-02-11T11:10:02.758Z,68.15
2023-02-11T11:12:30.733Z,67.74
2023-02-11T11:15:23.709Z,67.13
2023-02-11T11:18:21.431Z,66.61
2023-02-11T11:21:05.812Z,66.27
2023-02-11T11:23:37.975Z,66.26
2023-02-11T11:26:15.169Z,66.31
2023-02-11T11:28:49.194Z,66.18
2023-02-11T11:31:20.825Z,66.49
2023-02-11T11:33:53.026Z,67.12
2023-02-11T11:36:24.831Z,67.31
2023-02-11T11:38:57.806Z,67.63
2023-02-11T11:41:27.565Z,67.86
2023-02-11T11:44:17.850Z,68.15
2023-02-11T11:46:49.414Z,68.97
2023-02-11T11:49:30.130Z,69.12
2023-02-11T11:52:03.712Z,68.74
2023-02-11T11:54:31.951Z,68.49
2023-02-11T11:57:13.304Z,68.96
2023-02-11T11:59:42.056Z,68.96
2023-02-11T12:02:28.836Z,69.13
2023-02-11T12:05:25.512Z,69.15
2023-02-11T12:08:12.351Z,69.75
2023-02-11T12:10:50.478Z,70.59
2023-02-11T12:13:47.479Z,70.53
2023-02-11T12:16:21.621Z,70.39
2023-02-11T12:19:26.971Z,70.40
2023-02-11T12:22:00.625Z,70.58
2023-02-11T12:24:45.918Z,70.87
2023-02-11T12:27:41.889Z,71.96
2023-02-11T12:30:29.217Z,71.77
2023-02-11T12:33:22.965Z,71.60
2023-02-11T12:36:03.246Z,71.58
2023-02-11T12:38:53.017Z,71.70
2023-02-11T12:41:51.493Z,72.18
2023-02-11T12:45:01.218Z,74.07
2023-02-11T12:48:13.037Z,75.29
2023-02-11T12:51:03.180Z,75.56
2023-02-11T12:53:53.928Z,75.73
2023-02-11T12:56:32.524Z,76.60
2023-02-11T12:59:05.414Z,77.63
2023-02-11T13:01:39.842Z,76.83
2023-02-11T13:04:35.380Z,77.12
2023-02-11T13:07:14.077Z,77.09
2023-02-11T13:09:49.312Z,78.02
2023-02-11T13:12:37.149Z,77.95
2023-02-11T13:15:13.175Z,78.18
2023-02-11T13:17:52.392Z,78.02
2023-02-11T13:20:25.640Z,78.54
2023-02-11T13:23:17.452Z,78.82
2023-02-11T13:26:13.393Z,78.28
2023-02-11T13:29:12.335Z,78.28
2023-02-11T13:31:40.287Z,78.72
2023-02-11T13:34:25.993Z,79.19
2023-02-11T13:36:56.007Z,78.88
2023-02-11T13:39:24.839Z,78.61
2023-02-11T13:42:03.396Z,78.47
2023-02-11T13:44:35.007Z,78.86
2023-02-11T13:47:08.159Z,79.76
2023-02-11T13:49:50.806Z,79.30
2023-02-11T13:52:22.278Z,79.41
2023-02-11T13:54:53.553Z,79.64
2023-02-11T13:57:29.669Z,80.48
2023-02-11T14:00:09.133Z,80.99
2023-02-11T14:02:55.990Z,80.52
2023-02-11T14:05:49.933Z,80.37
2023-02-11T14:08:39.833Z,80.39
2023-02-11T14:11:12.500Z,81.26
2023-02-11T14:13:49.472Z,80.93
2023-02-11T14:16:36.982Z,80.83
2023-02-11T14:19:06.878Z,81.07
2023-02-11T14:21:38.537Z,81.57
2023-02-11T14:24:07.253Z,81.54
2023-02-11T14:26:42.667Z,81.15
2023-02-11T14:29:20.202Z,81.03
2023-02-11T14:32:25.134Z,80.93
2023-02-11T14:35:20.713Z,81.64
2023-02-11T14:37:51.754Z,81.56
2023-02-11T14:40:41.229Z,81.67
2023-02-11T14:43:16.992Z,82.00
2023-02-11T14:45:59.949Z,83.28
2023-02-11T14:48:31.646Z,83.99
2023-02-11T14:51:18.237Z,84.84
2023-02-11T14:53:52.251Z,86.00
2023-02-11T14:56:32.820Z,86.97
2023-02-11T14:59:02.862Z,87.82
2023-02-11T15:01:34.031Z,88.26
2023-02-11T15:04:04.705Z,88.92
2023-02-11T15:06:37.321Z,90.52
2023-02-11T15:09:16.291Z,90.73
2023-02-11T15:11:46.921Z,90.85
2023-02-11T15:14:35.105Z,90.78
2023-02-11T15:17:08.118Z,91.39
2023-02-11T15:19:46.787Z,92.31
2023-02-11T15:22:24.924Z,92.57
2023-02-11T15:25:16.787Z,92.95
2023-02-11T15:27:50.753Z,93.23
2023-02-11T15:30:21.792Z,92.81
2023-02-11T15:33:00.530Z,93.15
2023-02-11T15:35:41.083Z,93.40
2023-02-11T15:38:13.064Z,93.91
2023-02-11T15:40:41.070Z,93.42
2023-02-11T15:43:10.775Z,94.30
2023-02-11T15:45:56.558Z,94.88
2023-02-11T15:48:56.419Z,95.44
2023-02-11T15:51:31.672Z,94.89
2023-02-11T15:54:07.081Z,94.98
2023-02-11T15:56:42.242Z,95.32
2023-02-11T15:59:15.967Z,95.49
2023-02-11T16:01:45.873Z,95.53
2023-02-11T16:04:49.120Z,96.21
2023-02-11T16:07:47.769Z,96.63
2023-02-11T16:10:18.310Z,96.66
2023-02-11T16:13:12.304Z,96.06
2023-02-11T16:15:58.607Z,96.53
2023-02-11T16:18:38.127Z,97.20
2023-02-11T16:21:17.903Z,96.57
2023-02-11T16:23:55.025Z,97.40
2023-02-11T16:26:36.639Z,96.45
2023-02-11T16:29:08.071Z,97.76
2023-02-11T16:31:42.410Z,97.79
2023-02-11T16:34:19.421Z,97.29
2023-02-11T16:36:48.825Z,97.73
2023-02-11T16:39:18.190Z,98.14
2023-02-11T16:41:46.079Z,98.27
2023-02-11T16:44:14.046Z,98.09
2023-02-11T16:46:42.090Z,98.20
2023-02-11T16:49:16.707Z,97.65
2023-02-11T16:51:49.439Z,97.90
2023-02-11T16:54:19.728Z,97.84
2023-02-11T16:57:23.135Z,98.93
2023-02-11T16:59:52.539Z,97.94
2023-02-11T17:02:27.580Z,97.98
2023-02-11T17:04:59.023Z,98.32
2023-02-11T17:07:27.830Z,99.02
2023-02-11T17:09:56.719Z,98.82
2023-02-11T17:12:27.571Z,99.15
2023-02-11T17:14:55.559Z,99.81
2023-02-11T17:17:24.019Z,100.00
2023-02-11T17:19:52.037Z,100.00
2023-02-11T17:22:19.942Z,100.00
2023-02-11T17:24:48.734Z,100.00
2023-02-11T17:27:17.638Z,100.00
2023-02-11T17:29:46.738Z,100.00
2023-02-11T17:32:14.760Z,100.00
2023-02-11T17:34:43.065Z,100.00
2023-02-11T17:37:11.230Z,99.78
2023-02-11T17:39:40.382Z,99.96
2023-02-11T17:42:08.901Z,100.00
2023-02-11T17:44:37.359Z,100.00
2023-02-11T17:47:05.484Z,100.00
2023-02-11T17:49:33.482Z,100.00
2023-02-11T17:52:01.415Z,100.00
2023-02-11T17:54:29.316Z,100.00
2023-02-11T17:56:58.558Z,100.00
2023-02-11T17:59:28.575Z,100.00
2023-02-11T18:01:56.645Z,100.00
2023-02-11T18:04:24.576Z,100.00
2023-02-11T18:06:53.704Z,100.00
2023-02-11T18:09:21.812Z,100.00
2023-02-11T18:11:53.183Z,100.00
2023-02-11T18:14:24.138Z,100.00
2023-02-11T18:16:53.167Z,100.00
2023-02-11T18:19:21.750Z,100.00
2023-02-11T18:21:55.505Z,100.00
2023-02-11T18:24:23.939Z,100.00
2023-02-11T18:26:52.340Z,100.00
2023-02-11T18:29:20.569Z,100.00
2023-02-11T18:31:54.936Z,100.00
2023-02-11T18:34:23.558Z,100.00
2023-02-11T18:36:55.680Z,100.00
2023-02-11T18:39:24.614Z,100.00
2023-02-11T18:41:56.960Z,100.00
2023-02-11T18:44:27.212Z,100.00
2023-02-11T18:46:55.297Z,100.00
2023-02-11T18:49:23.282Z,100.00
2023-02-11T18:51:51.319Z,100.00
2023-02-11T18:54:19.804Z,100.00
2023-02-11T18:56:48.226Z,100.00
2023-02-11T18:59:16.751Z,100.00
2023-02-11T19:01:47.113Z,100.00
2023-02-11T19:04:20.057Z,100.00
2023-02-11T19:06:52.372Z,100.00
2023-02-11T19:09:20.883Z,100.00
2023-02-11T19:11:54.310Z,100.00
2023-02-11T19:14:25.696Z,100.00
2023-02-11T19:16:57.979Z,100.00
2023-02-11T19:19:29.792Z,100.00
2023-02-11T19:21:59.913Z,100.00
2023-02-11T19:24:29.254Z,100.00
2023-02-11T19:26:59.766Z,100.00
2023-02-11T19:29:29.789Z,100.00
2023-02-11T19:31:57.869Z,100.00
2023-02-11T19:34:25.788Z,100.00
2023-02-11T19:36:54.533Z,100.00
2023-02-11T19:39:24.909Z,100.00
2023-02-11T19:41:53.183Z,100.00
2023-02-11T19:44:21.104Z,100.00
2023-02-11T19:46:50.391Z,100.00
2023-02-11T19:49:26.867Z,100.00
2023-02-11T19:51:58.424Z,100.00
2023-02-11T19:54:29.171Z,100.00
2023-02-11T19:56:58.128Z,100.00
2023-02-11T19:59:26.811Z,100.00
2023-02-11T20:01:54.905Z,100.00
2023-02-11T20:04:25.171Z,100.00
2023-02-11T20:06:53.501Z,100.00
2023-02-11T20:09:22.862Z,100.00
2023-02-11T20:11:50.936Z,100.00
2023-02-11T20:14:21.512Z,100.00
2023-02-11T20:16:50.465Z,100.00
2023-02-11T20:19:21.671Z,100.00
2023-02-11T20:21:53.065Z,100.00
2023-02-11T20:24:21.911Z,100.00
2023-02-11T20:26:51.797Z,100.00
2023-02-11T20:29:19.853Z,100.00
2023-02-11T20:31:50.150Z,100.00
2023-02-11T20:34:18.402Z,100.00
2023-02-11T20:36:52.394Z,100.00
2023-02-11T20:39:24.901Z,100.00
2023-02-11T20:41:54.059Z,100.00
2023-02-11T20:44:22.881Z,100.00
2023-02-11T20:46:54.093Z,100.00
2023-02-11T20:49:24.153Z,100.00
2023-02-11T20:51:54.111Z,100.00
2023-02-11T20:54:23.723Z,100.00
2023-02-11T20:56:53.980Z,100.00
2023-02-11T20:59:23.178Z,100.00
2023-02-11T21:01:56.271Z,100.00
2023-02-11T21:04:30.919Z,100.00
2023-02-11T21:07:01.212Z,100.00
2023-02-11T21:09:32.049Z,100.00
2023-02-11T21:12:00.680Z,100.00
2023-02-11T21:14:29.323Z,100.00
2023-02-11T21:16:58.182Z,100.00
2023-02-11T21:19:27.206Z,100.00
2023-02-11T21:21:57.377Z,100.00
2023-02-11T21:24:25.531Z,100.00
2023-02-11T21:26:53.683Z,100.00
2023-02-11T21:29:22.217Z,100.00
2023-02-11T21:31:51.540Z,100.00
2023-02-11T21:34:20.794Z,100.00
2023-02-11T21:36:51.264Z,100.00
2023-02-11T21:39:20.395Z,100.00
2023-02-11T21:41:48.455Z,100.00
2023-02-11T21:44:16.543Z,100.00
2023-02-11T21:46:45.082Z,100.00
2023-02-11T21:49:13.187Z,100.00
2023-02-11T21:51:41.168Z,100.00
2023-02-11T21:54:11.212Z,100.00
2023-02-11T21:56:39.090Z,100.00
2023-02-11T21:59:07.489Z,100.00
2023-02-11T22:01:35.984Z,100.00
2023-02-11T22:04:04.684Z,100.00
2023-02-11T22:06:35.162Z,100.00
2023-02-11T22:09:06.616Z,100.00
2023-02-11T22:11:34.664Z,100.00
2023-02-11T22:14:02.842Z,100.00
2023-02-11T22:16:31.472Z,100.00
2023-02-11T22:19:00.921Z,100.00
2023-02-11T22:21:30.153Z,100.00
2023-02-11T22:23:58.601Z,100.00
2023-02-11T22:26:28.067Z,100.00
2023-02-11T22:28:56.450Z,100.00
2023-02-11T22:31:31.476Z,100.00
2023-02-11T22:34:00.452Z,100.00
2023-02-11T22:36:35.158Z,100.00
2023-02-11T22:39:09.425Z,100.00
2023-02-11T22:41:40.855Z,100.00
2023-02-11T22:44:09.301Z,100.00
2023-02-11T22:46:38.125Z,100.00
2023-02-11T22:49:07.493Z,100.00
2023-02-11T22:51:35.384Z,100.00
2023-02-11T22:54:06.167Z,100.00
2023-02-11T22:56:35.199Z,100.00
2023-02-11T22:59:06.385Z,100.00
2023-02-11T23:01:35.355Z,100.00
2023-02-11T23:04:05.782Z,100.00
2023-02-11T23:06:34.632Z,100.00
2023-02-11T23:09:10.412Z,100.00
2023-02-11T23:11:39.254Z,100.00
2023-02-11T23:14:08.878Z,100.00
2023-02-11T23:16:36.873Z,100.00
2023-02-11T23:19:08.657Z,100.00
2023-02-11T23:21:38.782Z,100.00
2023-02-11T23:24:15.995Z,100.00
2023-02-11T23:26:44.509Z,100.00
2023-02-11T23:29:12.454Z,100.00
2023-02-11T23:31:45.277Z,100.00
2023-02-11T23:34:18.564Z,100.00
2023-02-11T23:36:46.579Z,100.00
2023-02-11T23:39:15.931Z,100.00
2023-02-11T23:41:45.072Z,100.00
2023-02-11T23:44:13.171Z,100.00
2023-02-11T23:46:41.125Z,100.00
2023-02-11T23:49:09.089Z,100.00
2023-02-11T23:51:36.989Z,100.00
2023-02-11T23:54:04.938Z,100.00
2023-02-11T23:56:33.054Z,100.00
2023-02-11T23:59:00.942Z,100.00
